sensor_id;sensor_type;location;lat;lon;timestamp;P1;durP1;ratioP1;P2;durP2;ratioP2
13163;SDS011;6647;53.688;10.746;2022-09-09T00:00:16;33.47;;;26.58;;
13163;SDS011;6647;53.688;10.746;2022-09-09T00:03:27;32.08;;;25.50;;
13163;SDS011;6647;53.688;10.746;2022-09-09T00:06:29;34.65;;;24.80;;
13163;SDS011;6647;53.688;10.746;2022-09-09T00:07:54;35.33;;;25.80;;
13163;SDS011;6647;53.688;10.746;2022-09-09T00:09:19;35.90;;;25.50;;
13163;SDS011;6647;53.688;10.746;2022-09-09T00:10:45;34.13;;;25.80;;
13163;SDS011;6647;53.688;10.746;2022-09-09T00:12:25;34.97;;;25.25;;
13163;SDS011;6647;53.688;10.746;2022-09-09T00:13:54;33.05;;;24.52;;
13163;SDS011;6647;53.688;10.746;2022-09-09T00:15:19;32.42;;;24.40;;
13163;SDS011;6647;53.688;10.746;2022-09-09T00:16:44;33.60;;;25.55;;
13163;SDS011;6647;53.688;10.746;2022-09-09T00:18:21;33.03;;;23.20;;
13163;SDS011;6647;53.688;10.746;2022-09-09T00:21:37;30.65;;;24.42;;
13163;SDS011;6647;53.688;10.746;2022-09-09T00:23:11;36.92;;;25.83;;
13163;SDS011;6647;53.688;10.746;2022-09-09T00:24:41;31.60;;;24.45;;
13163;SDS011;6647;53.688;10.746;2022-09-09T00:26:14;31.63;;;23.52;;
13163;SDS011;6647;53.688;10.746;2022-09-09T00:27:50;33.85;;;23.83;;
13163;SDS011;6647;53.688;10.746;2022-09-09T00:29:26;35.28;;;25.60;;
13163;SDS011;6647;53.688;10.746;2022-09-09T00:31:11;33.38;;;23.77;;
13163;SDS011;6647;53.688;10.746;2022-09-09T00:32:34;34.03;;;24.23;;
13163;SDS011;6647;53.688;10.746;2022-09-09T00:33:58;34.30;;;25.00;;
13163;SDS011;6647;53.688;10.746;2022-09-09T00:35:29;31.83;;;23.25;;
13163;SDS011;6647;53.688;10.746;2022-09-09T00:36:52;32.28;;;23.70;;
13163;SDS011;6647;53.688;10.746;2022-09-09T00:39:57;32.50;;;22.42;;
13163;SDS011;6647;53.688;10.746;2022-09-09T00:41:22;33.63;;;23.48;;
13163;SDS011;6647;53.688;10.746;2022-09-09T00:43:16;40.85;;;26.02;;
13163;SDS011;6647;53.688;10.746;2022-09-09T00:44:51;32.80;;;23.05;;
13163;SDS011;6647;53.688;10.746;2022-09-09T00:47:52;33.33;;;24.55;;
13163;SDS011;6647;53.688;10.746;2022-09-09T00:50:55;34.70;;;25.65;;
13163;SDS011;6647;53.688;10.746;2022-09-09T00:55:39;35.70;;;26.08;;
13163;SDS011;6647;53.688;10.746;2022-09-09T00:57:25;34.47;;;23.65;;
13163;SDS011;6647;53.688;10.746;2022-09-09T01:00:46;29.88;;;22.52;;
13163;SDS011;6647;53.688;10.746;2022-09-09T01:02:46;31.58;;;23.30;;
13163;SDS011;6647;53.688;10.746;2022-09-09T01:03:58;31.30;;;23.05;;
13163;SDS011;6647;53.688;10.746;2022-09-09T01:06:53;30.40;;;23.50;;
13163;SDS011;6647;53.688;10.746;2022-09-09T01:10:15;32.47;;;23.95;;
13163;SDS011;6647;53.688;10.746;2022-09-09T01:13:44;29.60;;;22.40;;
13163;SDS011;6647;53.688;10.746;2022-09-09T01:15:11;29.40;;;22.25;;
13163;SDS011;6647;53.688;10.746;2022-09-09T01:16:37;31.85;;;22.00;;
13163;SDS011;6647;53.688;10.746;2022-09-09T01:20:10;29.73;;;22.27;;
13163;SDS011;6647;53.688;10.746;2022-09-09T01:23:04;25.55;;;20.45;;
13163;SDS011;6647;53.688;10.746;2022-09-09T01:27:31;28.92;;;22.13;;
13163;SDS011;6647;53.688;10.746;2022-09-09T01:28:55;26.40;;;21.58;;
13163;SDS011;6647;53.688;10.746;2022-09-09T01:30:16;30.00;;;23.20;;
13163;SDS011;6647;53.688;10.746;2022-09-09T01:31:41;28.70;;;22.13;;
13163;SDS011;6647;53.688;10.746;2022-09-09T01:33:17;28.75;;;21.33;;
13163;SDS011;6647;53.688;10.746;2022-09-09T01:34:38;27.63;;;21.75;;
13163;SDS011;6647;53.688;10.746;2022-09-09T01:36:12;26.50;;;20.70;;
13163;SDS011;6647;53.688;10.746;2022-09-09T01:37:37;24.85;;;18.30;;
13163;SDS011;6647;53.688;10.746;2022-09-09T01:38:58;23.90;;;20.58;;
13163;SDS011;6647;53.688;10.746;2022-09-09T01:40:18;23.60;;;19.08;;
13163;SDS011;6647;53.688;10.746;2022-09-09T01:41:39;27.48;;;19.33;;
13163;SDS011;6647;53.688;10.746;2022-09-09T01:43:00;27.30;;;19.70;;
13163;SDS011;6647;53.688;10.746;2022-09-09T01:44:21;27.50;;;20.20;;
13163;SDS011;6647;53.688;10.746;2022-09-09T01:45:44;27.83;;;21.10;;
13163;SDS011;6647;53.688;10.746;2022-09-09T01:47:08;25.10;;;18.73;;
13163;SDS011;6647;53.688;10.746;2022-09-09T01:48:29;25.02;;;19.10;;
13163;SDS011;6647;53.688;10.746;2022-09-09T01:49:51;23.15;;;18.15;;
13163;SDS011;6647;53.688;10.746;2022-09-09T01:51:12;28.13;;;21.05;;
13163;SDS011;6647;53.688;10.746;2022-09-09T01:52:33;25.85;;;20.92;;
13163;SDS011;6647;53.688;10.746;2022-09-09T01:53:56;25.92;;;19.40;;
13163;SDS011;6647;53.688;10.746;2022-09-09T01:55:18;25.35;;;19.50;;
13163;SDS011;6647;53.688;10.746;2022-09-09T01:56:51;25.23;;;19.77;;
13163;SDS011;6647;53.688;10.746;2022-09-09T01:58:28;24.38;;;18.13;;
13163;SDS011;6647;53.688;10.746;2022-09-09T02:00:02;24.23;;;18.75;;
13163;SDS011;6647;53.688;10.746;2022-09-09T02:01:46;27.55;;;19.92;;
13163;SDS011;6647;53.688;10.746;2022-09-09T02:03:25;28.58;;;20.85;;
13163;SDS011;6647;53.688;10.746;2022-09-09T02:05:11;32.42;;;22.88;;
13163;SDS011;6647;53.688;10.746;2022-09-09T02:06:37;28.67;;;21.50;;
13163;SDS011;6647;53.688;10.746;2022-09-09T02:08:07;23.63;;;17.90;;
13163;SDS011;6647;53.688;10.746;2022-09-09T02:09:30;27.15;;;19.30;;
13163;SDS011;6647;53.688;10.746;2022-09-09T02:11:11;25.60;;;18.63;;
13163;SDS011;6647;53.688;10.746;2022-09-09T02:12:42;28.38;;;20.92;;
13163;SDS011;6647;53.688;10.746;2022-09-09T02:14:11;26.65;;;18.88;;
13163;SDS011;6647;53.688;10.746;2022-09-09T02:15:42;25.50;;;18.67;;
13163;SDS011;6647;53.688;10.746;2022-09-09T02:17:11;26.98;;;20.30;;
13163;SDS011;6647;53.688;10.746;2022-09-09T02:18:40;24.58;;;18.80;;
13163;SDS011;6647;53.688;10.746;2022-09-09T02:20:12;27.33;;;20.00;;
13163;SDS011;6647;53.688;10.746;2022-09-09T02:21:34;27.88;;;20.15;;
13163;SDS011;6647;53.688;10.746;2022-09-09T02:22:56;26.48;;;19.23;;
13163;SDS011;6647;53.688;10.746;2022-09-09T02:24:19;27.38;;;20.05;;
13163;SDS011;6647;53.688;10.746;2022-09-09T02:25:40;25.02;;;18.90;;
13163;SDS011;6647;53.688;10.746;2022-09-09T02:27:04;29.35;;;19.20;;
13163;SDS011;6647;53.688;10.746;2022-09-09T02:28:29;27.00;;;19.30;;
13163;SDS011;6647;53.688;10.746;2022-09-09T02:29:51;26.65;;;19.73;;
13163;SDS011;6647;53.688;10.746;2022-09-09T02:31:15;26.40;;;19.08;;
13163;SDS011;6647;53.688;10.746;2022-09-09T02:32:39;30.15;;;19.70;;
13163;SDS011;6647;53.688;10.746;2022-09-09T02:34:02;27.55;;;19.23;;
13163;SDS011;6647;53.688;10.746;2022-09-09T02:35:28;29.55;;;19.48;;
13163;SDS011;6647;53.688;10.746;2022-09-09T02:36:51;25.58;;;17.98;;
13163;SDS011;6647;53.688;10.746;2022-09-09T02:38:15;25.48;;;18.52;;
13163;SDS011;6647;53.688;10.746;2022-09-09T02:39:37;23.83;;;18.48;;
13163;SDS011;6647;53.688;10.746;2022-09-09T02:40:58;26.23;;;20.05;;
13163;SDS011;6647;53.688;10.746;2022-09-09T02:42:19;26.08;;;17.63;;
13163;SDS011;6647;53.688;10.746;2022-09-09T02:43:40;26.05;;;18.23;;
13163;SDS011;6647;53.688;10.746;2022-09-09T02:45:01;27.60;;;20.15;;
13163;SDS011;6647;53.688;10.746;2022-09-09T02:46:25;25.15;;;17.73;;
13163;SDS011;6647;53.688;10.746;2022-09-09T02:49:36;27.33;;;18.80;;
13163;SDS011;6647;53.688;10.746;2022-09-09T02:51:24;28.63;;;20.73;;
13163;SDS011;6647;53.688;10.746;2022-09-09T02:54:38;26.48;;;19.60;;
13163;SDS011;6647;53.688;10.746;2022-09-09T02:56:02;23.23;;;18.92;;
13163;SDS011;6647;53.688;10.746;2022-09-09T02:57:26;29.58;;;21.10;;
13163;SDS011;6647;53.688;10.746;2022-09-09T02:58:50;26.15;;;19.05;;
13163;SDS011;6647;53.688;10.746;2022-09-09T03:00:12;26.48;;;19.95;;
13163;SDS011;6647;53.688;10.746;2022-09-09T03:01:33;24.60;;;18.98;;
13163;SDS011;6647;53.688;10.746;2022-09-09T03:02:55;29.80;;;20.20;;
13163;SDS011;6647;53.688;10.746;2022-09-09T03:04:16;26.27;;;19.45;;
13163;SDS011;6647;53.688;10.746;2022-09-09T03:05:37;27.02;;;20.02;;
13163;SDS011;6647;53.688;10.746;2022-09-09T03:06:59;31.08;;;21.40;;
13163;SDS011;6647;53.688;10.746;2022-09-09T03:08:20;26.30;;;19.63;;
13163;SDS011;6647;53.688;10.746;2022-09-09T03:09:41;29.25;;;20.05;;
13163;SDS011;6647;53.688;10.746;2022-09-09T03:11:02;22.60;;;17.05;;
13163;SDS011;6647;53.688;10.746;2022-09-09T03:12:24;26.08;;;19.27;;
13163;SDS011;6647;53.688;10.746;2022-09-09T03:13:45;25.92;;;18.83;;
13163;SDS011;6647;53.688;10.746;2022-09-09T03:15:06;26.00;;;19.15;;
13163;SDS011;6647;53.688;10.746;2022-09-09T03:16:27;28.95;;;20.27;;
13163;SDS011;6647;53.688;10.746;2022-09-09T03:17:48;26.63;;;19.60;;
13163;SDS011;6647;53.688;10.746;2022-09-09T03:19:09;27.45;;;19.80;;
13163;SDS011;6647;53.688;10.746;2022-09-09T03:20:30;31.63;;;20.38;;
13163;SDS011;6647;53.688;10.746;2022-09-09T03:21:51;28.00;;;19.42;;
13163;SDS011;6647;53.688;10.746;2022-09-09T03:23:12;30.05;;;20.35;;
13163;SDS011;6647;53.688;10.746;2022-09-09T03:24:33;27.50;;;20.35;;
13163;SDS011;6647;53.688;10.746;2022-09-09T03:25:54;24.73;;;18.52;;
13163;SDS011;6647;53.688;10.746;2022-09-09T03:27:17;25.73;;;18.50;;
13163;SDS011;6647;53.688;10.746;2022-09-09T03:28:39;27.20;;;20.48;;
13163;SDS011;6647;53.688;10.746;2022-09-09T03:30:01;30.00;;;19.25;;
13163;SDS011;6647;53.688;10.746;2022-09-09T03:31:24;28.50;;;19.63;;
13163;SDS011;6647;53.688;10.746;2022-09-09T03:32:45;27.92;;;18.60;;
13163;SDS011;6647;53.688;10.746;2022-09-09T03:34:06;27.45;;;19.55;;
13163;SDS011;6647;53.688;10.746;2022-09-09T03:35:28;26.23;;;19.70;;
13163;SDS011;6647;53.688;10.746;2022-09-09T03:36:49;30.83;;;21.15;;
13163;SDS011;6647;53.688;10.746;2022-09-09T03:38:10;25.52;;;18.23;;
13163;SDS011;6647;53.688;10.746;2022-09-09T03:39:31;28.73;;;19.70;;
13163;SDS011;6647;53.688;10.746;2022-09-09T03:40:53;24.60;;;18.73;;
13163;SDS011;6647;53.688;10.746;2022-09-09T03:42:15;25.75;;;18.88;;
13163;SDS011;6647;53.688;10.746;2022-09-09T03:43:39;24.42;;;18.70;;
13163;SDS011;6647;53.688;10.746;2022-09-09T03:45:00;24.05;;;18.95;;
13163;SDS011;6647;53.688;10.746;2022-09-09T03:46:22;33.40;;;22.00;;
13163;SDS011;6647;53.688;10.746;2022-09-09T03:47:44;27.40;;;20.08;;
13163;SDS011;6647;53.688;10.746;2022-09-09T03:49:04;30.00;;;20.35;;
13163;SDS011;6647;53.688;10.746;2022-09-09T03:50:25;32.05;;;22.70;;
13163;SDS011;6647;53.688;10.746;2022-09-09T03:51:46;29.20;;;21.00;;
13163;SDS011;6647;53.688;10.746;2022-09-09T03:53:07;27.27;;;20.08;;
13163;SDS011;6647;53.688;10.746;2022-09-09T03:54:28;30.75;;;22.45;;
13163;SDS011;6647;53.688;10.746;2022-09-09T03:55:50;29.02;;;21.13;;
13163;SDS011;6647;53.688;10.746;2022-09-09T03:57:15;27.85;;;19.67;;
13163;SDS011;6647;53.688;10.746;2022-09-09T03:58:37;23.63;;;18.25;;
13163;SDS011;6647;53.688;10.746;2022-09-09T03:59:58;27.50;;;19.60;;
13163;SDS011;6647;53.688;10.746;2022-09-09T04:01:21;28.00;;;21.02;;
13163;SDS011;6647;53.688;10.746;2022-09-09T04:02:42;29.40;;;19.95;;
13163;SDS011;6647;53.688;10.746;2022-09-09T04:04:03;29.65;;;19.77;;
13163;SDS011;6647;53.688;10.746;2022-09-09T04:05:24;29.23;;;20.17;;
13163;SDS011;6647;53.688;10.746;2022-09-09T04:06:45;29.15;;;21.33;;
13163;SDS011;6647;53.688;10.746;2022-09-09T04:08:08;26.30;;;19.80;;
13163;SDS011;6647;53.688;10.746;2022-09-09T04:09:29;29.08;;;19.58;;
13163;SDS011;6647;53.688;10.746;2022-09-09T04:10:50;27.35;;;20.70;;
13163;SDS011;6647;53.688;10.746;2022-09-09T04:12:12;27.35;;;20.20;;
13163;SDS011;6647;53.688;10.746;2022-09-09T04:13:34;29.50;;;21.20;;
13163;SDS011;6647;53.688;10.746;2022-09-09T04:14:55;26.90;;;20.05;;
13163;SDS011;6647;53.688;10.746;2022-09-09T04:16:17;26.08;;;19.83;;
13163;SDS011;6647;53.688;10.746;2022-09-09T04:17:37;26.08;;;20.48;;
13163;SDS011;6647;53.688;10.746;2022-09-09T04:18:58;28.75;;;20.00;;
13163;SDS011;6647;53.688;10.746;2022-09-09T04:20:20;31.45;;;20.88;;
13163;SDS011;6647;53.688;10.746;2022-09-09T04:21:42;26.70;;;19.83;;
13163;SDS011;6647;53.688;10.746;2022-09-09T04:23:03;26.85;;;20.00;;
13163;SDS011;6647;53.688;10.746;2022-09-09T04:24:24;30.75;;;20.75;;
13163;SDS011;6647;53.688;10.746;2022-09-09T04:25:48;27.13;;;19.35;;
13163;SDS011;6647;53.688;10.746;2022-09-09T04:27:10;29.52;;;19.52;;
13163;SDS011;6647;53.688;10.746;2022-09-09T04:28:33;26.13;;;20.83;;
13163;SDS011;6647;53.688;10.746;2022-09-09T04:29:55;28.30;;;20.92;;
13163;SDS011;6647;53.688;10.746;2022-09-09T04:31:18;26.65;;;20.75;;
13163;SDS011;6647;53.688;10.746;2022-09-09T04:32:42;26.65;;;19.60;;
13163;SDS011;6647;53.688;10.746;2022-09-09T04:34:03;31.63;;;22.20;;
13163;SDS011;6647;53.688;10.746;2022-09-09T04:35:25;25.08;;;19.45;;
13163;SDS011;6647;53.688;10.746;2022-09-09T04:36:47;27.20;;;20.20;;
13163;SDS011;6647;53.688;10.746;2022-09-09T04:38:08;31.15;;;20.92;;
13163;SDS011;6647;53.688;10.746;2022-09-09T04:39:29;25.77;;;18.65;;
13163;SDS011;6647;53.688;10.746;2022-09-09T04:40:50;28.05;;;21.25;;
13163;SDS011;6647;53.688;10.746;2022-09-09T04:42:12;24.27;;;19.95;;
13163;SDS011;6647;53.688;10.746;2022-09-09T04:43:33;26.50;;;19.35;;
13163;SDS011;6647;53.688;10.746;2022-09-09T04:44:55;25.95;;;19.85;;
13163;SDS011;6647;53.688;10.746;2022-09-09T04:46:15;27.33;;;21.73;;
13163;SDS011;6647;53.688;10.746;2022-09-09T04:47:39;33.22;;;20.30;;
13163;SDS011;6647;53.688;10.746;2022-09-09T04:49:00;28.67;;;21.10;;
13163;SDS011;6647;53.688;10.746;2022-09-09T04:50:21;29.23;;;20.40;;
13163;SDS011;6647;53.688;10.746;2022-09-09T04:51:42;32.75;;;20.13;;
13163;SDS011;6647;53.688;10.746;2022-09-09T04:53:03;25.73;;;20.55;;
13163;SDS011;6647;53.688;10.746;2022-09-09T04:54:25;28.75;;;20.27;;
13163;SDS011;6647;53.688;10.746;2022-09-09T04:55:46;26.10;;;20.05;;
13163;SDS011;6647;53.688;10.746;2022-09-09T04:57:07;29.95;;;21.10;;
13163;SDS011;6647;53.688;10.746;2022-09-09T04:58:27;29.90;;;21.60;;
13163;SDS011;6647;53.688;10.746;2022-09-09T04:59:49;28.73;;;20.15;;
13163;SDS011;6647;53.688;10.746;2022-09-09T05:01:11;26.73;;;20.45;;
13163;SDS011;6647;53.688;10.746;2022-09-09T05:02:36;28.10;;;21.30;;
13163;SDS011;6647;53.688;10.746;2022-09-09T05:03:58;26.38;;;18.35;;
13163;SDS011;6647;53.688;10.746;2022-09-09T05:05:19;27.92;;;20.30;;
13163;SDS011;6647;53.688;10.746;2022-09-09T05:06:40;32.70;;;21.55;;
13163;SDS011;6647;53.688;10.746;2022-09-09T05:08:03;31.70;;;21.38;;
13163;SDS011;6647;53.688;10.746;2022-09-09T05:09:25;30.33;;;20.38;;
13163;SDS011;6647;53.688;10.746;2022-09-09T05:10:45;27.50;;;20.00;;
13163;SDS011;6647;53.688;10.746;2022-09-09T05:12:06;29.45;;;20.52;;
13163;SDS011;6647;53.688;10.746;2022-09-09T05:13:28;28.17;;;20.95;;
13163;SDS011;6647;53.688;10.746;2022-09-09T05:14:52;26.83;;;18.58;;
13163;SDS011;6647;53.688;10.746;2022-09-09T05:16:14;32.45;;;21.15;;
13163;SDS011;6647;53.688;10.746;2022-09-09T05:17:35;24.55;;;18.15;;
13163;SDS011;6647;53.688;10.746;2022-09-09T05:18:56;26.70;;;19.45;;
13163;SDS011;6647;53.688;10.746;2022-09-09T05:20:17;30.33;;;20.58;;
13163;SDS011;6647;53.688;10.746;2022-09-09T05:21:38;29.95;;;20.70;;
13163;SDS011;6647;53.688;10.746;2022-09-09T05:22:59;32.80;;;20.65;;
13163;SDS011;6647;53.688;10.746;2022-09-09T05:24:20;31.33;;;20.58;;
13163;SDS011;6647;53.688;10.746;2022-09-09T05:25:43;27.73;;;19.58;;
13163;SDS011;6647;53.688;10.746;2022-09-09T05:27:04;30.02;;;21.35;;
13163;SDS011;6647;53.688;10.746;2022-09-09T05:28:26;31.25;;;19.60;;
13163;SDS011;6647;53.688;10.746;2022-09-09T05:29:48;23.90;;;19.10;;
13163;SDS011;6647;53.688;10.746;2022-09-09T05:31:09;26.15;;;18.30;;
13163;SDS011;6647;53.688;10.746;2022-09-09T05:32:34;25.67;;;19.27;;
13163;SDS011;6647;53.688;10.746;2022-09-09T05:33:55;26.52;;;19.60;;
13163;SDS011;6647;53.688;10.746;2022-09-09T05:35:16;28.20;;;19.70;;
13163;SDS011;6647;53.688;10.746;2022-09-09T05:36:38;30.10;;;19.60;;
13163;SDS011;6647;53.688;10.746;2022-09-09T05:37:59;28.25;;;19.13;;
13163;SDS011;6647;53.688;10.746;2022-09-09T05:39:20;21.90;;;17.88;;
13163;SDS011;6647;53.688;10.746;2022-09-09T05:40:46;26.13;;;18.50;;
13163;SDS011;6647;53.688;10.746;2022-09-09T05:42:08;29.42;;;20.00;;
13163;SDS011;6647;53.688;10.746;2022-09-09T05:43:29;22.35;;;17.45;;
13163;SDS011;6647;53.688;10.746;2022-09-09T05:44:50;28.30;;;20.23;;
13163;SDS011;6647;53.688;10.746;2022-09-09T05:46:12;26.00;;;18.77;;
13163;SDS011;6647;53.688;10.746;2022-09-09T05:47:40;26.30;;;18.20;;
13163;SDS011;6647;53.688;10.746;2022-09-09T05:49:01;25.00;;;18.85;;
13163;SDS011;6647;53.688;10.746;2022-09-09T05:50:23;23.73;;;17.20;;
13163;SDS011;6647;53.688;10.746;2022-09-09T05:51:43;24.90;;;19.00;;
13163;SDS011;6647;53.688;10.746;2022-09-09T05:53:04;26.65;;;17.98;;
13163;SDS011;6647;53.688;10.746;2022-09-09T05:54:25;25.65;;;18.08;;
13163;SDS011;6647;53.688;10.746;2022-09-09T05:55:46;25.05;;;17.77;;
13163;SDS011;6647;53.688;10.746;2022-09-09T05:57:08;24.92;;;17.52;;
13163;SDS011;6647;53.688;10.746;2022-09-09T05:58:29;25.05;;;18.20;;
13163;SDS011;6647;53.688;10.746;2022-09-09T05:59:51;28.00;;;19.27;;
13163;SDS011;6647;53.688;10.746;2022-09-09T06:01:13;24.95;;;17.90;;
13163;SDS011;6647;53.688;10.746;2022-09-09T06:02:35;26.70;;;19.65;;
13163;SDS011;6647;53.688;10.746;2022-09-09T06:03:58;27.38;;;17.92;;
13163;SDS011;6647;53.688;10.746;2022-09-09T06:05:19;23.58;;;17.63;;
13163;SDS011;6647;53.688;10.746;2022-09-09T06:06:40;23.90;;;16.85;;
13163;SDS011;6647;53.688;10.746;2022-09-09T06:08:02;23.13;;;19.15;;
13163;SDS011;6647;53.688;10.746;2022-09-09T06:09:23;22.40;;;18.80;;
13163;SDS011;6647;53.688;10.746;2022-09-09T06:10:44;24.05;;;18.15;;
13163;SDS011;6647;53.688;10.746;2022-09-09T06:12:05;23.67;;;18.02;;
13163;SDS011;6647;53.688;10.746;2022-09-09T06:13:26;24.73;;;18.38;;
13163;SDS011;6647;53.688;10.746;2022-09-09T06:14:47;20.67;;;16.20;;
13163;SDS011;6647;53.688;10.746;2022-09-09T06:16:08;20.90;;;16.08;;
13163;SDS011;6647;53.688;10.746;2022-09-09T06:17:31;24.88;;;16.08;;
13163;SDS011;6647;53.688;10.746;2022-09-09T06:18:52;21.15;;;15.60;;
13163;SDS011;6647;53.688;10.746;2022-09-09T06:20:15;18.65;;;14.25;;
13163;SDS011;6647;53.688;10.746;2022-09-09T06:21:36;20.60;;;16.27;;
13163;SDS011;6647;53.688;10.746;2022-09-09T06:22:57;22.27;;;15.20;;
13163;SDS011;6647;53.688;10.746;2022-09-09T06:24:18;19.60;;;14.38;;
13163;SDS011;6647;53.688;10.746;2022-09-09T06:25:40;19.20;;;14.70;;
13163;SDS011;6647;53.688;10.746;2022-09-09T06:27:01;19.67;;;14.95;;
13163;SDS011;6647;53.688;10.746;2022-09-09T06:28:21;16.85;;;13.90;;
13163;SDS011;6647;53.688;10.746;2022-09-09T06:29:42;16.95;;;13.43;;
13163;SDS011;6647;53.688;10.746;2022-09-09T06:31:04;18.02;;;13.60;;
13163;SDS011;6647;53.688;10.746;2022-09-09T06:32:27;20.20;;;13.73;;
13163;SDS011;6647;53.688;10.746;2022-09-09T06:33:51;18.65;;;14.02;;
13163;SDS011;6647;53.688;10.746;2022-09-09T06:35:13;17.88;;;13.00;;
13163;SDS011;6647;53.688;10.746;2022-09-09T06:36:35;15.68;;;13.20;;
13163;SDS011;6647;53.688;10.746;2022-09-09T06:37:57;18.13;;;13.48;;
13163;SDS011;6647;53.688;10.746;2022-09-09T06:39:21;16.08;;;13.13;;
13163;SDS011;6647;53.688;10.746;2022-09-09T06:40:42;18.13;;;12.70;;
13163;SDS011;6647;53.688;10.746;2022-09-09T06:42:11;16.58;;;12.52;;
13163;SDS011;6647;53.688;10.746;2022-09-09T06:43:32;15.85;;;12.45;;
13163;SDS011;6647;53.688;10.746;2022-09-09T06:44:53;18.13;;;13.02;;
13163;SDS011;6647;53.688;10.746;2022-09-09T06:46:15;15.05;;;11.68;;
13163;SDS011;6647;53.688;10.746;2022-09-09T06:47:36;15.48;;;11.73;;
13163;SDS011;6647;53.688;10.746;2022-09-09T06:48:57;16.02;;;13.45;;
13163;SDS011;6647;53.688;10.746;2022-09-09T06:50:19;17.45;;;12.60;;
13163;SDS011;6647;53.688;10.746;2022-09-09T06:51:41;16.27;;;12.60;;
13163;SDS011;6647;53.688;10.746;2022-09-09T06:53:03;18.35;;;12.70;;
13163;SDS011;6647;53.688;10.746;2022-09-09T06:54:24;15.68;;;12.18;;
13163;SDS011;6647;53.688;10.746;2022-09-09T06:55:45;16.30;;;11.65;;
13163;SDS011;6647;53.688;10.746;2022-09-09T06:57:06;14.45;;;11.95;;
13163;SDS011;6647;53.688;10.746;2022-09-09T06:58:27;16.42;;;11.80;;
13163;SDS011;6647;53.688;10.746;2022-09-09T06:59:49;15.80;;;11.65;;
13163;SDS011;6647;53.688;10.746;2022-09-09T07:01:14;11.98;;;10.55;;
13163;SDS011;6647;53.688;10.746;2022-09-09T07:02:39;13.70;;;11.32;;
13163;SDS011;6647;53.688;10.746;2022-09-09T07:04:01;15.13;;;11.20;;
13163;SDS011;6647;53.688;10.746;2022-09-09T07:05:24;14.07;;;10.13;;
13163;SDS011;6647;53.688;10.746;2022-09-09T07:06:46;14.30;;;11.02;;
13163;SDS011;6647;53.688;10.746;2022-09-09T07:08:07;12.93;;;10.80;;
13163;SDS011;6647;53.688;10.746;2022-09-09T07:09:28;13.38;;;10.45;;
13163;SDS011;6647;53.688;10.746;2022-09-09T07:10:50;12.70;;;8.85;;
13163;SDS011;6647;53.688;10.746;2022-09-09T07:12:14;12.27;;;9.57;;
13163;SDS011;6647;53.688;10.746;2022-09-09T07:13:34;12.20;;;9.40;;
13163;SDS011;6647;53.688;10.746;2022-09-09T07:14:55;13.00;;;9.50;;
13163;SDS011;6647;53.688;10.746;2022-09-09T07:16:17;11.57;;;10.05;;
13163;SDS011;6647;53.688;10.746;2022-09-09T07:17:39;9.30;;;8.30;;
13163;SDS011;6647;53.688;10.746;2022-09-09T07:19:00;12.70;;;9.70;;
13163;SDS011;6647;53.688;10.746;2022-09-09T07:20:23;13.07;;;9.68;;
13163;SDS011;6647;53.688;10.746;2022-09-09T07:21:44;11.90;;;8.82;;
13163;SDS011;6647;53.688;10.746;2022-09-09T07:23:05;12.93;;;9.40;;
13163;SDS011;6647;53.688;10.746;2022-09-09T07:24:26;12.05;;;8.82;;
13163;SDS011;6647;53.688;10.746;2022-09-09T07:25:50;10.18;;;8.45;;
13163;SDS011;6647;53.688;10.746;2022-09-09T07:27:13;11.35;;;8.75;;
13163;SDS011;6647;53.688;10.746;2022-09-09T07:28:33;8.43;;;7.38;;
13163;SDS011;6647;53.688;10.746;2022-09-09T07:29:55;10.98;;;8.45;;
13163;SDS011;6647;53.688;10.746;2022-09-09T07:31:19;8.40;;;6.80;;
13163;SDS011;6647;53.688;10.746;2022-09-09T07:32:51;11.40;;;8.23;;
13163;SDS011;6647;53.688;10.746;2022-09-09T07:34:12;9.50;;;7.82;;
13163;SDS011;6647;53.688;10.746;2022-09-09T07:35:33;11.05;;;7.63;;
13163;SDS011;6647;53.688;10.746;2022-09-09T07:36:54;9.43;;;7.20;;
13163;SDS011;6647;53.688;10.746;2022-09-09T07:38:17;8.38;;;6.85;;
13163;SDS011;6647;53.688;10.746;2022-09-09T07:39:42;8.02;;;6.50;;
13163;SDS011;6647;53.688;10.746;2022-09-09T07:41:04;9.80;;;7.60;;
13163;SDS011;6647;53.688;10.746;2022-09-09T07:42:34;8.18;;;7.00;;
13163;SDS011;6647;53.688;10.746;2022-09-09T07:43:57;12.98;;;6.82;;
13163;SDS011;6647;53.688;10.746;2022-09-09T07:45:18;10.52;;;6.72;;
13163;SDS011;6647;53.688;10.746;2022-09-09T07:46:39;15.07;;;6.40;;
13163;SDS011;6647;53.688;10.746;2022-09-09T07:48:01;12.02;;;6.53;;
13163;SDS011;6647;53.688;10.746;2022-09-09T07:49:23;7.28;;;5.43;;
13163;SDS011;6647;53.688;10.746;2022-09-09T07:50:44;10.00;;;5.95;;
13163;SDS011;6647;53.688;10.746;2022-09-09T07:52:05;9.05;;;6.85;;
13163;SDS011;6647;53.688;10.746;2022-09-09T07:53:26;9.27;;;5.97;;
13163;SDS011;6647;53.688;10.746;2022-09-09T07:54:47;6.07;;;5.47;;
13163;SDS011;6647;53.688;10.746;2022-09-09T07:56:09;6.90;;;5.97;;
13163;SDS011;6647;53.688;10.746;2022-09-09T07:57:32;9.27;;;6.53;;
13163;SDS011;6647;53.688;10.746;2022-09-09T07:58:53;10.13;;;6.10;;
13163;SDS011;6647;53.688;10.746;2022-09-09T08:00:15;6.72;;;5.85;;
13163;SDS011;6647;53.688;10.746;2022-09-09T08:01:37;6.22;;;5.18;;
13163;SDS011;6647;53.688;10.746;2022-09-09T08:03:00;8.57;;;6.18;;
13163;SDS011;6647;53.688;10.746;2022-09-09T08:04:22;14.93;;;6.10;;
13163;SDS011;6647;53.688;10.746;2022-09-09T08:05:45;6.80;;;5.45;;
13163;SDS011;6647;53.688;10.746;2022-09-09T08:07:06;8.93;;;5.80;;
13163;SDS011;6647;53.688;10.746;2022-09-09T08:08:27;7.80;;;5.55;;
13163;SDS011;6647;53.688;10.746;2022-09-09T08:09:48;7.82;;;5.75;;
13163;SDS011;6647;53.688;10.746;2022-09-09T08:11:14;10.52;;;6.30;;
13163;SDS011;6647;53.688;10.746;2022-09-09T08:12:35;9.48;;;5.28;;
13163;SDS011;6647;53.688;10.746;2022-09-09T08:13:56;7.00;;;5.13;;
13163;SDS011;6647;53.688;10.746;2022-09-09T08:15:17;4.82;;;4.38;;
13163;SDS011;6647;53.688;10.746;2022-09-09T08:16:39;7.15;;;4.80;;
13163;SDS011;6647;53.688;10.746;2022-09-09T08:18:02;8.05;;;5.50;;
13163;SDS011;6647;53.688;10.746;2022-09-09T08:19:24;6.05;;;5.30;;
13163;SDS011;6647;53.688;10.746;2022-09-09T08:20:45;10.50;;;5.32;;
13163;SDS011;6647;53.688;10.746;2022-09-09T08:22:06;9.18;;;5.05;;
13163;SDS011;6647;53.688;10.746;2022-09-09T08:23:28;5.20;;;4.65;;
13163;SDS011;6647;53.688;10.746;2022-09-09T08:24:49;8.45;;;5.03;;
13163;SDS011;6647;53.688;10.746;2022-09-09T08:26:11;6.00;;;4.75;;
13163;SDS011;6647;53.688;10.746;2022-09-09T08:27:36;7.90;;;5.10;;
13163;SDS011;6647;53.688;10.746;2022-09-09T08:28:58;5.43;;;4.57;;
13163;SDS011;6647;53.688;10.746;2022-09-09T08:30:19;9.73;;;4.57;;
13163;SDS011;6647;53.688;10.746;2022-09-09T08:31:54;5.40;;;4.90;;
13163;SDS011;6647;53.688;10.746;2022-09-09T08:33:17;6.00;;;5.03;;
13163;SDS011;6647;53.688;10.746;2022-09-09T08:34:38;9.43;;;5.20;;
13163;SDS011;6647;53.688;10.746;2022-09-09T08:35:59;4.32;;;4.00;;
13163;SDS011;6647;53.688;10.746;2022-09-09T08:37:19;4.70;;;4.05;;
13163;SDS011;6647;53.688;10.746;2022-09-09T08:38:41;7.22;;;4.25;;
13163;SDS011;6647;53.688;10.746;2022-09-09T08:40:02;10.02;;;4.30;;
13163;SDS011;6647;53.688;10.746;2022-09-09T08:42:56;12.20;;;4.20;;